sensor_id;sensor_type;location;lat;lon;timestamp;P1;durP1;ratioP1;P2;durP2;ratioP2
21959;SDS011;11144;43.030;25.108;2024-01-30T00:00:55;26.40;;;13.07;;
21959;SDS011;11144;43.030;25.108;2024-01-30T00:02:27;39.20;;;15.35;;
21959;SDS011;11144;43.030;25.108;2024-01-30T00:04:01;36.80;;;16.50;;
21959;SDS011;11144;43.030;25.108;2024-01-30T00:05:33;36.08;;;15.68;;
21959;SDS011;11144;43.030;25.108;2024-01-30T00:07:07;26.48;;;12.00;;
21959;SDS011;11144;43.030;25.108;2024-01-30T00:08:39;30.10;;;12.90;;
21959;SDS011;11144;43.030;25.108;2024-01-30T00:10:13;27.50;;;12.18;;
21959;SDS011;11144;43.030;25.108;2024-01-30T00:11:45;23.80;;;11.60;;
21959;SDS011;11144;43.030;25.108;2024-01-30T00:13:19;21.55;;;10.23;;
21959;SDS011;11144;43.030;25.108;2024-01-30T00:14:53;24.88;;;10.07;;
21959;SDS011;11144;43.030;25.108;2024-01-30T00:16:27;24.20;;;9.88;;
21959;SDS011;11144;43.030;25.108;2024-01-30T00:17:59;21.52;;;10.50;;
21959;SDS011;11144;43.030;25.108;2024-01-30T00:19:33;17.00;;;8.35;;
21959;SDS011;11144;43.030;25.108;2024-01-30T00:21:05;21.13;;;10.43;;
21959;SDS011;11144;43.030;25.108;2024-01-30T00:22:39;23.48;;;10.95;;
21959;SDS011;11144;43.030;25.108;2024-01-30T00:24:11;24.58;;;10.68;;
21959;SDS011;11144;43.030;25.108;2024-01-30T00:25:44;24.60;;;11.55;;
21959;SDS011;11144;43.030;25.108;2024-01-30T00:27:17;21.70;;;10.00;;
21959;SDS011;11144;43.030;25.108;2024-01-30T00:28:50;22.70;;;11.50;;
21959;SDS011;11144;43.030;25.108;2024-01-30T00:30:24;20.35;;;10.38;;
21959;SDS011;11144;43.030;25.108;2024-01-30T00:31:57;24.15;;;11.65;;
21959;SDS011;11144;43.030;25.108;2024-01-30T00:33:29;23.30;;;10.88;;
21959;SDS011;11144;43.030;25.108;2024-01-30T00:35:03;25.23;;;10.55;;
21959;SDS011;11144;43.030;25.108;2024-01-30T00:36:36;20.15;;;9.88;;
21959;SDS011;11144;43.030;25.108;2024-01-30T00:38:10;20.13;;;9.10;;
21959;SDS011;11144;43.030;25.108;2024-01-30T00:39:42;21.17;;;9.88;;
21959;SDS011;11144;43.030;25.108;2024-01-30T00:41:17;19.13;;;9.43;;
21959;SDS011;11144;43.030;25.108;2024-01-30T00:42:49;21.38;;;10.48;;
21959;SDS011;11144;43.030;25.108;2024-01-30T00:44:22;23.80;;;9.90;;
21959;SDS011;11144;43.030;25.108;2024-01-30T00:45:56;23.85;;;11.18;;
21959;SDS011;11144;43.030;25.108;2024-01-30T00:47:30;22.40;;;10.27;;
21959;SDS011;11144;43.030;25.108;2024-01-30T00:49:04;27.50;;;10.93;;
21959;SDS011;11144;43.030;25.108;2024-01-30T00:50:38;25.75;;;10.82;;
21959;SDS011;11144;43.030;25.108;2024-01-30T00:52:11;25.38;;;10.30;;
21959;SDS011;11144;43.030;25.108;2024-01-30T00:53:44;24.77;;;10.68;;
21959;SDS011;11144;43.030;25.108;2024-01-30T00:55:17;20.88;;;9.57;;
21959;SDS011;11144;43.030;25.108;2024-01-30T00:56:50;21.90;;;10.55;;
21959;SDS011;11144;43.030;25.108;2024-01-30T00:58:23;25.35;;;10.02;;
21959;SDS011;11144;43.030;25.108;2024-01-30T00:59:56;20.02;;;9.82;;
21959;SDS011;11144;43.030;25.108;2024-01-30T01:01:30;23.23;;;10.05;;
21959;SDS011;11144;43.030;25.108;2024-01-30T01:03:04;23.60;;;10.13;;
21959;SDS011;11144;43.030;25.108;2024-01-30T01:04:36;19.45;;;9.05;;
21959;SDS011;11144;43.030;25.108;2024-01-30T01:06:10;23.05;;;9.93;;
21959;SDS011;11144;43.030;25.108;2024-01-30T01:07:42;25.20;;;11.25;;
21959;SDS011;11144;43.030;25.108;2024-01-30T01:09:17;22.13;;;10.05;;
21959;SDS011;11144;43.030;25.108;2024-01-30T01:10:49;24.98;;;10.70;;
21959;SDS011;11144;43.030;25.108;2024-01-30T01:12:23;21.65;;;10.40;;
21959;SDS011;11144;43.030;25.108;2024-01-30T01:13:55;22.98;;;10.90;;
21959;SDS011;11144;43.030;25.108;2024-01-30T01:15:29;24.52;;;11.32;;
21959;SDS011;11144;43.030;25.108;2024-01-30T01:17:03;26.00;;;10.77;;
21959;SDS011;11144;43.030;25.108;2024-01-30T01:18:36;25.15;;;10.98;;
21959;SDS011;11144;43.030;25.108;2024-01-30T01:20:10;21.05;;;9.73;;
21959;SDS011;11144;43.030;25.108;2024-01-30T01:21:43;27.27;;;12.15;;
21959;SDS011;11144;43.030;25.108;2024-01-30T01:23:17;22.83;;;11.30;;
21959;SDS011;11144;43.030;25.108;2024-01-30T01:24:49;23.40;;;10.88;;
21959;SDS011;11144;43.030;25.108;2024-01-30T01:26:22;25.42;;;10.68;;
21959;SDS011;11144;43.030;25.108;2024-01-30T01:27:55;26.85;;;11.80;;
21959;SDS011;11144;43.030;25.108;2024-01-30T01:29:28;25.95;;;12.40;;
21959;SDS011;11144;43.030;25.108;2024-01-30T01:31:01;24.45;;;11.98;;
21959;SDS011;11144;43.030;25.108;2024-01-30T01:32:39;26.13;;;12.52;;
21959;SDS011;11144;43.030;25.108;2024-01-30T01:34:16;25.17;;;11.57;;
21959;SDS011;11144;43.030;25.108;2024-01-30T01:35:50;24.90;;;11.38;;
21959;SDS011;11144;43.030;25.108;2024-01-30T01:37:23;26.80;;;12.18;;
21959;SDS011;11144;43.030;25.108;2024-01-30T01:38:58;31.02;;;12.95;;
21959;SDS011;11144;43.030;25.108;2024-01-30T01:40:31;26.33;;;11.27;;
21959;SDS011;11144;43.030;25.108;2024-01-30T01:42:05;27.02;;;10.98;;
21959;SDS011;11144;43.030;25.108;2024-01-30T01:43:37;27.10;;;10.52;;
21959;SDS011;11144;43.030;25.108;2024-01-30T01:45:10;26.02;;;12.32;;
21959;SDS011;11144;43.030;25.108;2024-01-30T01:46:43;23.83;;;11.20;;
21959;SDS011;11144;43.030;25.108;2024-01-30T01:48:18;28.40;;;11.25;;
21959;SDS011;11144;43.030;25.108;2024-01-30T01:49:51;24.98;;;11.05;;
21959;SDS011;11144;43.030;25.108;2024-01-30T01:51:26;26.00;;;11.38;;
21959;SDS011;11144;43.030;25.108;2024-01-30T01:52:59;22.70;;;11.50;;
21959;SDS011;11144;43.030;25.108;2024-01-30T01:54:33;29.35;;;13.18;;
21959;SDS011;11144;43.030;25.108;2024-01-30T01:56:06;28.75;;;12.52;;
21959;SDS011;11144;43.030;25.108;2024-01-30T01:57:40;43.70;;;16.05;;
21959;SDS011;11144;43.030;25.108;2024-01-30T01:59:13;38.75;;;14.80;;
21959;SDS011;11144;43.030;25.108;2024-01-30T02:00:47;34.90;;;14.52;;
21959;SDS011;11144;43.030;25.108;2024-01-30T02:02:19;31.67;;;12.90;;
21959;SDS011;11144;43.030;25.108;2024-01-30T02:03:57;29.88;;;12.05;;
21959;SDS011;11144;43.030;25.108;2024-01-30T02:05:30;27.13;;;11.93;;
21959;SDS011;11144;43.030;25.108;2024-01-30T02:07:04;23.88;;;10.45;;
21959;SDS011;11144;43.030;25.108;2024-01-30T02:08:37;20.85;;;9.68;;
21959;SDS011;11144;43.030;25.108;2024-01-30T02:10:10;24.70;;;10.60;;
21959;SDS011;11144;43.030;25.108;2024-01-30T02:11:43;22.00;;;10.05;;
21959;SDS011;11144;43.030;25.108;2024-01-30T02:13:16;21.75;;;9.80;;
21959;SDS011;11144;43.030;25.108;2024-01-30T02:14:48;28.15;;;12.25;;
21959;SDS011;11144;43.030;25.108;2024-01-30T02:16:23;23.67;;;11.35;;
21959;SDS011;11144;43.030;25.108;2024-01-30T02:17:57;29.13;;;11.63;;
21959;SDS011;11144;43.030;25.108;2024-01-30T02:19:31;20.48;;;9.85;;
21959;SDS011;11144;43.030;25.108;2024-01-30T02:21:06;22.85;;;10.70;;
21959;SDS011;11144;43.030;25.108;2024-01-30T02:22:38;21.67;;;10.07;;
21959;SDS011;11144;43.030;25.108;2024-01-30T02:24:13;27.20;;;10.95;;
21959;SDS011;11144;43.030;25.108;2024-01-30T02:25:45;28.42;;;12.73;;
21959;SDS011;11144;43.030;25.108;2024-01-30T02:27:19;24.58;;;11.45;;
21959;SDS011;11144;43.030;25.108;2024-01-30T02:28:51;29.60;;;11.90;;
21959;SDS011;11144;43.030;25.108;2024-01-30T02:30:25;26.23;;;12.32;;
21959;SDS011;11144;43.030;25.108;2024-01-30T02:31:58;24.63;;;11.85;;
21959;SDS011;11144;43.030;25.108;2024-01-30T02:33:30;27.88;;;11.93;;
21959;SDS011;11144;43.030;25.108;2024-01-30T02:35:04;25.83;;;11.27;;
21959;SDS011;11144;43.030;25.108;2024-01-30T02:36:38;22.67;;;11.60;;
21959;SDS011;11144;43.030;25.108;2024-01-30T02:38:15;29.00;;;11.63;;
21959;SDS011;11144;43.030;25.108;2024-01-30T02:39:47;24.70;;;12.07;;
21959;SDS011;11144;43.030;25.108;2024-01-30T02:41:21;29.58;;;12.13;;
21959;SDS011;11144;43.030;25.108;2024-01-30T02:42:53;26.27;;;11.60;;
21959;SDS011;11144;43.030;25.108;2024-01-30T02:44:27;25.95;;;10.55;;
21959;SDS011;11144;43.030;25.108;2024-01-30T02:45:59;27.02;;;11.85;;
21959;SDS011;11144;43.030;25.108;2024-01-30T02:47:32;24.45;;;11.73;;
21959;SDS011;11144;43.030;25.108;2024-01-30T02:49:05;24.55;;;11.35;;
21959;SDS011;11144;43.030;25.108;2024-01-30T02:50:38;23.70;;;11.35;;
21959;SDS011;11144;43.030;25.108;2024-01-30T02:52:12;23.08;;;10.70;;
21959;SDS011;11144;43.030;25.108;2024-01-30T02:53:45;28.67;;;11.32;;
21959;SDS011;11144;43.030;25.108;2024-01-30T02:55:18;24.20;;;10.82;;
21959;SDS011;11144;43.030;25.108;2024-01-30T02:56:51;28.95;;;11.70;;
21959;SDS011;11144;43.030;25.108;2024-01-30T02:58:23;26.27;;;11.95;;
21959;SDS011;11144;43.030;25.108;2024-01-30T02:59:57;31.42;;;13.38;;
21959;SDS011;11144;43.030;25.108;2024-01-30T03:01:29;33.25;;;13.63;;
21959;SDS011;11144;43.030;25.108;2024-01-30T03:03:03;35.60;;;13.38;;
21959;SDS011;11144;43.030;25.108;2024-01-30T03:04:37;34.85;;;15.52;;
21959;SDS011;11144;43.030;25.108;2024-01-30T03:06:12;36.15;;;15.10;;
21959;SDS011;11144;43.030;25.108;2024-01-30T03:07:48;30.25;;;13.43;;
21959;SDS011;11144;43.030;25.108;2024-01-30T03:09:21;30.95;;;14.48;;
21959;SDS011;11144;43.030;25.108;2024-01-30T03:10:55;36.22;;;14.57;;
21959;SDS011;11144;43.030;25.108;2024-01-30T03:12:28;31.67;;;12.52;;
21959;SDS011;11144;43.030;25.108;2024-01-30T03:14:00;34.13;;;12.90;;
21959;SDS011;11144;43.030;25.108;2024-01-30T03:15:35;28.25;;;12.77;;
21959;SDS011;11144;43.030;25.108;2024-01-30T03:17:08;37.97;;;14.10;;
21959;SDS011;11144;43.030;25.108;2024-01-30T03:18:42;43.13;;;16.20;;
21959;SDS011;11144;43.030;25.108;2024-01-30T03:20:14;28.08;;;13.02;;
21959;SDS011;11144;43.030;25.108;2024-01-30T03:21:48;25.17;;;12.23;;
21959;SDS011;11144;43.030;25.108;2024-01-30T03:23:21;27.80;;;13.38;;
21959;SDS011;11144;43.030;25.108;2024-01-30T03:24:55;34.13;;;13.98;;
21959;SDS011;11144;43.030;25.108;2024-01-30T03:26:27;26.40;;;12.25;;
21959;SDS011;11144;43.030;25.108;2024-01-30T03:28:00;28.48;;;13.95;;
21959;SDS011;11144;43.030;25.108;2024-01-30T03:29:33;26.67;;;12.23;;
21959;SDS011;11144;43.030;25.108;2024-01-30T03:31:06;24.63;;;11.30;;
21959;SDS011;11144;43.030;25.108;2024-01-30T03:32:39;26.23;;;11.77;;
21959;SDS011;11144;43.030;25.108;2024-01-30T03:34:12;29.35;;;11.80;;
21959;SDS011;11144;43.030;25.108;2024-01-30T03:35:44;26.02;;;11.35;;
21959;SDS011;11144;43.030;25.108;2024-01-30T03:37:18;27.77;;;10.75;;
21959;SDS011;11144;43.030;25.108;2024-01-30T03:38:52;27.40;;;12.07;;
21959;SDS011;11144;43.030;25.108;2024-01-30T03:40:25;26.25;;;11.48;;
21959;SDS011;11144;43.030;25.108;2024-01-30T03:41:59;25.42;;;11.63;;
21959;SDS011;11144;43.030;25.108;2024-01-30T03:43:31;28.02;;;12.45;;
21959;SDS011;11144;43.030;25.108;2024-01-30T03:45:05;33.15;;;13.90;;
21959;SDS011;11144;43.030;25.108;2024-01-30T03:46:38;23.95;;;11.30;;
21959;SDS011;11144;43.030;25.108;2024-01-30T03:48:11;26.13;;;11.82;;
21959;SDS011;11144;43.030;25.108;2024-01-30T03:49:45;25.42;;;11.98;;
21959;SDS011;11144;43.030;25.108;2024-01-30T03:51:17;24.95;;;11.30;;
21959;SDS011;11144;43.030;25.108;2024-01-30T03:52:51;26.92;;;11.68;;
21959;SDS011;11144;43.030;25.108;2024-01-30T03:54:24;24.73;;;11.98;;
21959;SDS011;11144;43.030;25.108;2024-01-30T03:55:58;24.00;;;11.00;;
21959;SDS011;11144;43.030;25.108;2024-01-30T03:57:30;23.08;;;11.80;;
21959;SDS011;11144;43.030;25.108;2024-01-30T03:59:03;25.73;;;10.60;;
21959;SDS011;11144;43.030;25.108;2024-01-30T04:00:36;23.45;;;10.35;;
21959;SDS011;11144;43.030;25.108;2024-01-30T04:02:09;22.85;;;11.10;;
21959;SDS011;11144;43.030;25.108;2024-01-30T04:03:43;24.55;;;10.23;;
21959;SDS011;11144;43.030;25.108;2024-01-30T04:05:16;22.33;;;10.68;;
21959;SDS011;11144;43.030;25.108;2024-01-30T04:06:49;21.77;;;10.25;;
21959;SDS011;11144;43.030;25.108;2024-01-30T04:08:22;25.40;;;10.40;;
21959;SDS011;11144;43.030;25.108;2024-01-30T04:09:57;21.10;;;9.25;;
21959;SDS011;11144;43.030;25.108;2024-01-30T04:11:29;27.00;;;11.75;;
21959;SDS011;11144;43.030;25.108;2024-01-30T04:13:02;25.27;;;10.48;;
21959;SDS011;11144;43.030;25.108;2024-01-30T04:14:37;23.75;;;10.45;;
21959;SDS011;11144;43.030;25.108;2024-01-30T04:16:18;25.92;;;13.00;;
21959;SDS011;11144;43.030;25.108;2024-01-30T04:17:51;29.73;;;14.52;;
21959;SDS011;11144;43.030;25.108;2024-01-30T04:19:25;35.67;;;18.10;;
21959;SDS011;11144;43.030;25.108;2024-01-30T04:20:57;72.85;;;32.55;;
21959;SDS011;11144;43.030;25.108;2024-01-30T04:22:31;32.10;;;13.73;;
21959;SDS011;11144;43.030;25.108;2024-01-30T04:24:03;32.22;;;12.93;;
21959;SDS011;11144;43.030;25.108;2024-01-30T04:25:39;26.02;;;12.30;;
21959;SDS011;11144;43.030;25.108;2024-01-30T04:27:11;25.55;;;13.77;;
21959;SDS011;11144;43.030;25.108;2024-01-30T04:28:45;25.23;;;11.45;;
21959;SDS011;11144;43.030;25.108;2024-01-30T04:30:17;25.70;;;11.48;;
21959;SDS011;11144;43.030;25.108;2024-01-30T04:31:50;26.92;;;11.23;;
21959;SDS011;11144;43.030;25.108;2024-01-30T04:33:23;25.40;;;11.70;;
21959;SDS011;11144;43.030;25.108;2024-01-30T04:34:56;28.13;;;10.13;;
21959;SDS011;11144;43.030;25.108;2024-01-30T04:36:29;19.67;;;9.82;;
21959;SDS011;11144;43.030;25.108;2024-01-30T04:38:02;23.10;;;9.85;;
21959;SDS011;11144;43.030;25.108;2024-01-30T04:39:35;21.50;;;10.63;;
21959;SDS011;11144;43.030;25.108;2024-01-30T04:41:10;21.65;;;10.40;;
21959;SDS011;11144;43.030;25.108;2024-01-30T04:42:43;22.63;;;11.40;;
21959;SDS011;11144;43.030;25.108;2024-01-30T04:44:16;25.58;;;12.05;;
21959;SDS011;11144;43.030;25.108;2024-01-30T04:45:49;24.02;;;10.98;;
21959;SDS011;11144;43.030;25.108;2024-01-30T04:47:23;20.77;;;10.40;;
21959;SDS011;11144;43.030;25.108;2024-01-30T04:48:56;30.38;;;12.70;;
21959;SDS011;11144;43.030;25.108;2024-01-30T04:50:30;26.98;;;12.07;;
21959;SDS011;11144;43.030;25.108;2024-01-30T04:52:03;23.13;;;11.75;;
21959;SDS011;11144;43.030;25.108;2024-01-30T04:53:36;24.38;;;11.65;;
21959;SDS011;11144;43.030;25.108;2024-01-30T04:55:08;23.02;;;11.75;;
21959;SDS011;11144;43.030;25.108;2024-01-30T04:56:43;24.50;;;11.45;;
21959;SDS011;11144;43.030;25.108;2024-01-30T04:58:15;23.50;;;11.15;;
21959;SDS011;11144;43.030;25.108;2024-01-30T04:59:49;26.88;;;12.10;;
21959;SDS011;11144;43.030;25.108;2024-01-30T05:01:21;31.08;;;13.48;;
21959;SDS011;11144;43.030;25.108;2024-01-30T05:02:55;29.40;;;13.82;;
21959;SDS011;11144;43.030;25.108;2024-01-30T05:04:27;24.83;;;12.18;;
21959;SDS011;11144;43.030;25.108;2024-01-30T05:06:01;25.88;;;11.10;;
21959;SDS011;11144;43.030;25.108;2024-01-30T05:07:33;22.52;;;11.05;;
21959;SDS011;11144;43.030;25.108;2024-01-30T05:09:07;23.30;;;10.55;;
21959;SDS011;11144;43.030;25.108;2024-01-30T05:10:39;20.80;;;10.55;;
21959;SDS011;11144;43.030;25.108;2024-01-30T05:12:14;24.33;;;9.60;;
21959;SDS011;11144;43.030;25.108;2024-01-30T05:13:46;21.90;;;10.27;;
21959;SDS011;11144;43.030;25.108;2024-01-30T05:15:19;19.20;;;10.25;;
21959;SDS011;11144;43.030;25.108;2024-01-30T05:16:54;23.58;;;10.55;;
21959;SDS011;11144;43.030;25.108;2024-01-30T05:18:28;22.52;;;10.88;;
21959;SDS011;11144;43.030;25.108;2024-01-30T05:20:00;22.45;;;10.63;;
21959;SDS011;11144;43.030;25.108;2024-01-30T05:21:34;23.48;;;11.18;;
21959;SDS011;11144;43.030;25.108;2024-01-30T05:23:07;21.20;;;10.15;;
21959;SDS011;11144;43.030;25.108;2024-01-30T05:24:40;24.08;;;10.68;;
21959;SDS011;11144;43.030;25.108;2024-01-30T05:26:13;21.58;;;10.48;;
21959;SDS011;11144;43.030;25.108;2024-01-30T05:27:48;24.92;;;10.40;;
21959;SDS011;11144;43.030;25.108;2024-01-30T05:29:21;23.00;;;10.50;;
21959;SDS011;11144;43.030;25.108;2024-01-30T05:30:55;23.30;;;10.38;;
21959;SDS011;11144;43.030;25.108;2024-01-30T05:32:27;20.13;;;9.88;;
21959;SDS011;11144;43.030;25.108;2024-01-30T05:34:00;23.17;;;11.43;;
21959;SDS011;11144;43.030;25.108;2024-01-30T05:35:34;23.35;;;11.27;;
21959;SDS011;11144;43.030;25.108;2024-01-30T05:37:07;27.70;;;11.48;;
21959;SDS011;11144;43.030;25.108;2024-01-30T05:38:39;24.23;;;11.63;;
21959;SDS011;11144;43.030;25.108;2024-01-30T05:40:13;28.25;;;13.38;;
21959;SDS011;11144;43.030;25.108;2024-01-30T05:41:45;22.63;;;11.60;;
21959;SDS011;11144;43.030;25.108;2024-01-30T05:43:20;27.05;;;11.98;;
21959;SDS011;11144;43.030;25.108;2024-01-30T05:44:54;24.15;;;11.13;;
21959;SDS011;11144;43.030;25.108;2024-01-30T05:46:26;24.52;;;11.52;;
21959;SDS011;11144;43.030;25.108;2024-01-30T05:48:00;26.83;;;12.70;;
21959;SDS011;11144;43.030;25.108;2024-01-30T05:49:33;46.85;;;22.00;;
21959;SDS011;11144;43.030;25.108;2024-01-30T05:51:06;42.72;;;20.42;;
21959;SDS011;11144;43.030;25.108;2024-01-30T05:52:39;27.38;;;14.07;;
21959;SDS011;11144;43.030;25.108;2024-01-30T05:54:13;24.95;;;12.25;;
21959;SDS011;11144;43.030;25.108;2024-01-30T05:55:48;22.00;;;9.82;;
21959;SDS011;11144;43.030;25.108;2024-01-30T05:57:21;22.77;;;11.05;;
21959;SDS011;11144;43.030;25.108;2024-01-30T05:58:55;21.65;;;11.38;;
21959;SDS011;11144;43.030;25.108;2024-01-30T06:00:28;25.55;;;12.00;;
21959;SDS011;11144;43.030;25.108;2024-01-30T06:02:01;29.75;;;11.98;;
21959;SDS011;11144;43.030;25.108;2024-01-30T06:03:33;28.60;;;12.02;;
21959;SDS011;11144;43.030;25.108;2024-01-30T06:05:07;30.67;;;13.32;;
21959;SDS011;11144;43.030;25.108;2024-01-30T06:06:41;25.15;;;12.55;;
21959;SDS011;11144;43.030;25.108;2024-01-30T06:08:14;23.50;;;11.63;;
21959;SDS011;11144;43.030;25.108;2024-01-30T06:09:47;26.73;;;12.07;;
21959;SDS011;11144;43.030;25.108;2024-01-30T06:11:19;26.17;;;11.82;;
21959;SDS011;11144;43.030;25.108;2024-01-30T06:12:53;24.05;;;12.13;;
21959;SDS011;11144;43.030;25.108;2024-01-30T06:14:28;26.70;;;12.35;;
21959;SDS011;11144;43.030;25.108;2024-01-30T06:16:00;26.92;;;12.40;;
21959;SDS011;11144;43.030;25.108;2024-01-30T06:17:33;22.83;;;11.18;;
21959;SDS011;11144;43.030;25.108;2024-01-30T06:19:06;23.67;;;10.27;;
21959;SDS011;11144;43.030;25.108;2024-01-30T06:20:39;22.48;;;10.43;;
21959;SDS011;11144;43.030;25.108;2024-01-30T06:22:11;20.85;;;9.95;;
21959;SDS011;11144;43.030;25.108;2024-01-30T06:23:45;26.80;;;11.50;;
21959;SDS011;11144;43.030;25.108;2024-01-30T06:25:17;20.83;;;10.35;;
21959;SDS011;11144;43.030;25.108;2024-01-30T06:26:51;21.92;;;10.70;;
21959;SDS011;11144;43.030;25.108;2024-01-30T06:28:23;21.58;;;10.70;;
21959;SDS011;11144;43.030;25.108;2024-01-30T06:29:58;26.55;;;11.13;;
21959;SDS011;11144;43.030;25.108;2024-01-30T06:31:31;42.30;;;20.58;;
21959;SDS011;11144;43.030;25.108;2024-01-30T06:33:04;34.67;;;15.00;;
21959;SDS011;11144;43.030;25.108;2024-01-30T06:34:36;29.90;;;13.88;;
21959;SDS011;11144;43.030;25.108;2024-01-30T06:36:11;37.15;;;17.08;;
21959;SDS011;11144;43.030;25.108;2024-01-30T06:37:45;37.05;;;16.77;;
21959;SDS011;11144;43.030;25.108;2024-01-30T06:39:20;50.88;;;22.48;;
21959;SDS011;11144;43.030;25.108;2024-01-30T06:40:53;48.70;;;22.50;;
21959;SDS011;11144;43.030;25.108;2024-01-30T06:42:26;41.53;;;19.42;;
21959;SDS011;11144;43.030;25.108;2024-01-30T06:43:59;38.95;;;18.73;;
21959;SDS011;11144;43.030;25.108;2024-01-30T06:45:32;25.42;;;13.07;;
21959;SDS011;11144;43.030;25.108;2024-01-30T06:47:06;29.58;;;13.43;;
21959;SDS011;11144;43.030;25.108;2024-01-30T06:48:38;38.15;;;14.80;;
21959;SDS011;11144;43.030;25.108;2024-01-30T06:50:12;36.13;;;14.75;;
21959;SDS011;11144;43.030;25.108;2024-01-30T06:51:45;38.05;;;16.60;;
21959;SDS011;11144;43.030;25.108;2024-01-30T06:53:18;42.03;;;16.95;;
21959;SDS011;11144;43.030;25.108;2024-01-30T06:54:50;35.88;;;17.27;;
21959;SDS011;11144;43.030;25.108;2024-01-30T06:56:23;33.40;;;14.35;;
21959;SDS011;11144;43.030;25.108;2024-01-30T06:57:57;31.20;;;14.13;;
21959;SDS011;11144;43.030;25.108;2024-01-30T06:59:31;26.88;;;12.70;;
21959;SDS011;11144;43.030;25.108;2024-01-30T07:01:04;29.63;;;14.68;;
21959;SDS011;11144;43.030;25.108;2024-01-30T07:02:38;30.35;;;15.57;;
21959;SDS011;11144;43.030;25.108;2024-01-30T07:04:10;28.45;;;14.43;;
21959;SDS011;11144;43.030;25.108;2024-01-30T07:05:44;25.85;;;13.52;;
21959;SDS011;11144;43.030;25.108;2024-01-30T07:07:16;29.77;;;16.02;;
21959;SDS011;11144;43.030;25.108;2024-01-30T07:08:49;34.95;;;15.82;;
21959;SDS011;11144;43.030;25.108;2024-01-30T07:10:22;27.42;;;14.38;;
21959;SDS011;11144;43.030;25.108;2024-01-30T07:11:55;26.48;;;13.45;;
21959;SDS011;11144;43.030;25.108;2024-01-30T07:13:29;30.55;;;14.75;;
21959;SDS011;11144;43.030;25.108;2024-01-30T07:15:03;30.75;;;15.23;;
21959;SDS011;11144;43.030;25.108;2024-01-30T07:16:38;29.50;;;13.75;;
21959;SDS011;11144;43.030;25.108;2024-01-30T07:18:11;24.65;;;12.57;;
21959;SDS011;11144;43.030;25.108;2024-01-30T07:19:45;23.40;;;12.27;;
21959;SDS011;11144;43.030;25.108;2024-01-30T07:21:18;33.25;;;14.88;;
21959;SDS011;11144;43.030;25.108;2024-01-30T07:22:53;39.10;;;16.15;;
21959;SDS011;11144;43.030;25.108;2024-01-30T07:24:26;49.08;;;18.48;;
21959;SDS011;11144;43.030;25.108;2024-01-30T07:25:58;38.50;;;15.52;;
21959;SDS011;11144;43.030;25.108;2024-01-30T07:27:32;31.70;;;14.13;;
21959;SDS011;11144;43.030;25.108;2024-01-30T07:29:04;24.80;;;11.05;;
21959;SDS011;11144;43.030;25.108;2024-01-30T07:30:37;26.70;;;12.02;;
21959;SDS011;11144;43.030;25.108;2024-01-30T07:32:11;32.65;;;14.32;;
21959;SDS011;11144;43.030;25.108;2024-01-30T07:33:44;25.58;;;13.00;;
21959;SDS011;11144;43.030;25.108;2024-01-30T07:35:17;29.15;;;14.55;;
21959;SDS011;11144;43.030;25.108;2024-01-30T07:36:50;29.73;;;11.90;;
21959;SDS011;11144;43.030;25.108;2024-01-30T07:38:26;30.40;;;13.27;;
21959;SDS011;11144;43.030;25.108;2024-01-30T07:40:00;32.38;;;14.55;;
21959;SDS011;11144;43.030;25.108;2024-01-30T07:41:33;30.00;;;12.60;;
21959;SDS011;11144;43.030;25.108;2024-01-30T07:43:07;27.30;;;13.65;;
21959;SDS011;11144;43.030;25.108;2024-01-30T07:44:39;30.52;;;14.38;;
21959;SDS011;11144;43.030;25.108;2024-01-30T07:46:13;22.10;;;10.07;;
21959;SDS011;11144;43.030;25.108;2024-01-30T07:47:46;19.48;;;9.38;;
21959;SDS011;11144;43.030;25.108;2024-01-30T07:49:20;20.60;;;9.35;;
21959;SDS011;11144;43.030;25.108;2024-01-30T07:50:52;24.88;;;10.63;;
21959;SDS011;11144;43.030;25.108;2024-01-30T07:52:25;19.58;;;9.20;;
21959;SDS011;11144;43.030;25.108;2024-01-30T07:53:59;25.67;;;11.98;;
21959;SDS011;11144;43.030;25.108;2024-01-30T07:55:32;24.67;;;13.52;;
21959;SDS011;11144;43.030;25.108;2024-01-30T07:57:05;26.00;;;12.63;;
21959;SDS011;11144;43.030;25.108;2024-01-30T07:58:37;22.05;;;12.10;;
21959;SDS011;11144;43.030;25.108;2024-01-30T08:00:11;29.02;;;13.65;;
21959;SDS011;11144;43.030;25.108;2024-01-30T08:01:44;26.10;;;13.30;;
21959;SDS011;11144;43.030;25.108;2024-01-30T08:03:19;35.80;;;16.17;;
21959;SDS011;11144;43.030;25.108;2024-01-30T08:04:51;23.48;;;11.30;;
21959;SDS011;11144;43.030;25.108;2024-01-30T08:06:25;24.17;;;10.43;;
21959;SDS011;11144;43.030;25.108;2024-01-30T08:07:57;29.65;;;13.18;;
21959;SDS011;11144;43.030;25.108;2024-01-30T08:09:30;36.33;;;16.27;;
21959;SDS011;11144;43.030;25.108;2024-01-30T08:11:03;26.85;;;13.75;;
21959;SDS011;11144;43.030;25.108;2024-01-30T08:12:37;26.13;;;12.27;;
21959;SDS011;11144;43.030;25.108;2024-01-30T08:14:09;20.73;;;9.63;;
21959;SDS011;11144;43.030;25.108;2024-01-30T08:15:42;20.52;;;9.90;;
21959;SDS011;11144;43.030;25.108;2024-01-30T08:17:14;28.48;;;13.43;;
21959;SDS011;11144;43.030;25.108;2024-01-30T08:18:49;22.77;;;10.60;;
21959;SDS011;11144;43.030;25.108;2024-01-30T08:20:21;29.90;;;13.80;;
21959;SDS011;11144;43.030;25.108;2024-01-30T08:21:55;24.33;;;11.65;;
21959;SDS011;11144;43.030;25.108;2024-01-30T08:23:28;24.73;;;10.63;;
21959;SDS011;11144;43.030;25.108;2024-01-30T08:25:00;28.27;;;12.90;;
21959;SDS011;11144;43.030;25.108;2024-01-30T08:26:34;18.27;;;9.85;;
21959;SDS011;11144;43.030;25.108;2024-01-30T08:28:06;22.95;;;11.07;;
21959;SDS011;11144;43.030;25.108;2024-01-30T08:29:40;21.52;;;10.90;;
21959;SDS011;11144;43.030;25.108;2024-01-30T08:31:12;20.40;;;9.23;;
21959;SDS011;11144;43.030;25.108;2024-01-30T08:32:45;24.60;;;11.48;;
21959;SDS011;11144;43.030;25.108;2024-01-30T08:34:20;24.52;;;11.32;;
21959;SDS011;11144;43.030;25.108;2024-01-30T08:35:53;18.95;;;9.65;;
21959;SDS011;11144;43.030;25.108;2024-01-30T08:37:26;23.73;;;11.88;;
21959;SDS011;11144;43.030;25.108;2024-01-30T08:38:59;26.38;;;12.57;;
21959;SDS011;11144;43.030;25.108;2024-01-30T08:40:35;26.98;;;12.82;;
21959;SDS011;11144;43.030;25.108;2024-01-30T08:42:08;30.15;;;13.65;;
21959;SDS011;11144;43.030;25.108;2024-01-30T08:43:41;27.75;;;13.05;;
21959;SDS011;11144;43.030;25.108;2024-01-30T08:45:16;21.20;;;9.77;;
21959;SDS011;11144;43.030;25.108;2024-01-30T08:46:48;23.80;;;12.43;;
21959;SDS011;11144;43.030;25.108;2024-01-30T08:48:22;18.65;;;9.90;;
21959;SDS011;11144;43.030;25.108;2024-01-30T08:49:56;22.02;;;11.55;;
21959;SDS011;11144;43.030;25.108;2024-01-30T08:51:29;18.02;;;7.97;;
21959;SDS011;11144;43.030;25.108;2024-01-30T08:53:02;18.63;;;9.23;;
21959;SDS011;11144;43.030;25.108;2024-01-30T08:54:36;17.77;;;9.05;;
21959;SDS011;11144;43.030;25.108;2024-01-30T08:56:08;21.73;;;10.73;;
21959;SDS011;11144;43.030;25.108;2024-01-30T08:57:41;21.38;;;10.85;;
21959;SDS011;11144;43.030;25.108;2024-01-30T08:59:14;16.05;;;8.40;;